createdAt,value
2017-09-06T00:01:50.642Z,40.50
2017-09-06T00:04:18.255Z,35.93
2017-09-06T00:06:45.884Z,34.80
2017-09-06T00:09:13.500Z,44.30
2017-09-06T00:11:41.133Z,30.83
2017-09-06T00:14:08.759Z,35.97
2017-09-06T00:16:36.367Z,34.20
2017-09-06T00:19:04.809Z,33.90
2017-09-06T00:21:32.454Z,32.10
2017-09-06T00:24:00.055Z,36.50
2017-09-06T00:26:27.667Z,34.30
2017-09-06T00:28:55.278Z,35.80
2017-09-06T00:31:22.899Z,31.27
2017-09-06T00:33:50.511Z,33.97
2017-09-06T00:36:18.139Z,34.97
2017-09-06T00:38:45.785Z,32.47
2017-09-06T00:41:13.387Z,35.70
2017-09-06T00:43:41.008Z,31.23
2017-09-06T00:46:08.607Z,37.10
2017-09-06T00:48:36.211Z,32.47
2017-09-06T00:51:03.833Z,40.10
2017-09-06T00:53:31.464Z,37.30
2017-09-06T00:55:59.076Z,32.70
2017-09-06T00:58:26.707Z,34.27
2017-09-06T01:00:54.347Z,37.30
2017-09-06T01:03:21.951Z,37.87
2017-09-06T01:05:49.569Z,44.77
2017-09-06T01:08:17.211Z,34.40
2017-09-06T01:10:44.858Z,39.00
2017-09-06T01:13:12.495Z,32.30
2017-09-06T01:15:40.181Z,32.70
2017-09-06T01:18:07.816Z,28.97
2017-09-06T01:20:35.428Z,26.80
2017-09-06T01:23:03.042Z,28.30
2017-09-06T01:25:31.278Z,28.40
2017-09-06T01:27:58.892Z,22.27
2017-09-06T01:30:26.530Z,26.00
2017-09-06T01:32:54.149Z,24.57
2017-09-06T01:35:21.786Z,21.57
2017-09-06T01:37:49.412Z,18.23
2017-09-06T01:40:17.026Z,15.00
2017-09-06T01:42:44.644Z,17.40
2017-09-06T01:45:12.303Z,17.40
2017-09-06T01:47:39.932Z,15.20
2017-09-06T01:50:07.546Z,16.83
2017-09-06T01:52:35.173Z,13.03
2017-09-06T01:55:03.424Z,16.63
2017-09-06T01:57:31.064Z,12.10
2017-09-06T01:59:58.693Z,11.90
2017-09-06T02:02:26.360Z,11.50
2017-09-06T02:04:54.014Z,13.00
2017-09-06T02:07:21.648Z,10.30
2017-09-06T02:09:49.257Z,11.77
2017-09-06T02:12:16.891Z,17.50
2017-09-06T02:14:44.479Z,12.97
2017-09-06T02:17:12.170Z,11.80
2017-09-06T02:19:39.768Z,9.80
2017-09-06T02:22:07.369Z,13.23
2017-09-06T02:24:34.996Z,9.30
2017-09-06T02:27:02.641Z,11.63
2017-09-06T02:29:30.322Z,9.97
2017-09-06T02:31:57.967Z,17.33
2017-09-06T02:34:25.593Z,13.50
2017-09-06T02:36:53.268Z,9.43
2017-09-06T02:39:20.895Z,12.20
2017-09-06T02:41:48.514Z,14.43
2017-09-06T02:44:16.108Z,9.83
2017-09-06T02:46:43.711Z,11.83
2017-09-06T02:49:11.333Z,14.10
2017-09-06T02:51:38.977Z,19.23
2017-09-06T02:54:06.594Z,12.60
2017-09-06T02:56:34.194Z,14.07
2017-09-06T02:59:01.814Z,10.63
2017-09-06T03:01:29.436Z,16.77
2017-09-06T03:03:57.038Z,12.67
2017-09-06T03:06:24.679Z,13.80
2017-09-06T03:08:52.287Z,11.23
2017-09-06T03:11:19.894Z,9.37
2017-09-06T03:13:48.370Z,11.87
2017-09-06T03:16:15.994Z,12.60
2017-09-06T03:18:43.622Z,11.30
2017-09-06T03:21:11.221Z,12.00
2017-09-06T03:23:38.825Z,11.03
2017-09-06T03:26:06.483Z,14.00
2017-09-06T03:28:34.107Z,13.77
2017-09-06T03:31:01.733Z,11.83
2017-09-06T03:33:29.353Z,12.83
2017-09-06T03:35:56.982Z,11.47
2017-09-06T03:38:24.591Z,12.10
2017-09-06T03:40:52.215Z,13.53
2017-09-06T03:43:19.834Z,13.73
2017-09-06T03:45:47.449Z,11.07
2017-09-06T03:48:16.001Z,8.73
2017-09-06T03:50:43.637Z,10.57
2017-09-06T03:53:11.265Z,9.03
2017-09-06T03:55:39.825Z,12.10
2017-09-06T03:58:07.441Z,6.83
2017-09-06T04:00:35.069Z,9.67
2017-09-06T04:03:02.682Z,16.03
2017-09-06T04:05:30.668Z,7.37
2017-09-06T04:07:58.289Z,8.60
2017-09-06T04:10:25.916Z,9.90
2017-09-06T04:12:53.864Z,7.90
2017-09-06T04:15:21.491Z,14.40
2017-09-06T04:17:49.119Z,7.73
2017-09-06T04:20:16.772Z,10.87
2017-09-06T04:22:44.400Z,8.67
2017-09-06T04:25:12.037Z,8.17
2017-09-06T04:27:39.684Z,7.07
2017-09-06T04:30:07.307Z,8.27
2017-09-06T04:32:34.956Z,8.40
2017-09-06T04:35:02.568Z,10.37
2017-09-06T04:37:30.177Z,7.90
2017-09-06T04:39:57.785Z,11.27
2017-09-06T04:42:25.405Z,11.40
2017-09-06T04:44:53.051Z,9.33
2017-09-06T04:47:20.648Z,7.70
2017-09-06T04:49:48.269Z,8.63
2017-09-06T04:52:15.890Z,7.10
2017-09-06T04:54:43.516Z,7.30
2017-09-06T05:00:20.095Z,8.00
2017-09-06T05:02:47.751Z,9.03
2017-09-06T05:05:15.367Z,7.80
2017-09-06T05:07:43.000Z,10.90
2017-09-06T05:10:10.611Z,10.00
2017-09-06T05:12:38.231Z,14.23
2017-09-06T05:15:05.834Z,10.37
2017-09-06T05:17:33.431Z,12.13
2017-09-06T05:20:01.059Z,10.80
2017-09-06T05:22:28.705Z,14.50
2017-09-06T05:24:56.326Z,11.00
2017-09-06T05:27:23.930Z,15.00
2017-09-06T05:29:51.602Z,15.83
2017-09-06T05:32:19.181Z,12.70
2017-09-06T05:34:46.807Z,17.63
2017-09-06T05:37:14.438Z,18.90
2017-09-06T05:39:42.048Z,19.90
2017-09-06T05:42:09.681Z,16.20
2017-09-06T05:44:37.283Z,21.87
2017-09-06T05:47:04.901Z,15.17
2017-09-06T05:49:32.537Z,18.63
2017-09-06T05:52:00.197Z,19.77
2017-09-06T05:54:27.832Z,15.93
2017-09-06T05:56:55.439Z,20.23
2017-09-06T05:59:23.064Z,18.03
2017-09-06T06:01:50.667Z,17.90
2017-09-06T06:04:18.278Z,20.00
2017-09-06T06:06:45.911Z,22.67
2017-09-06T06:09:13.519Z,22.00
2017-09-06T06:11:41.135Z,16.53
2017-09-06T06:14:08.762Z,17.40
2017-09-06T06:16:36.370Z,17.53
2017-09-06T06:19:04.020Z,19.20
2017-09-06T06:21:31.730Z,19.30
2017-09-06T06:23:59.940Z,19.57
2017-09-06T06:26:27.573Z,21.20
2017-09-06T06:28:55.183Z,18.10
2017-09-06T06:31:22.795Z,19.50
2017-09-06T06:33:50.396Z,23.43
2017-09-06T06:36:18.014Z,27.50
2017-09-06T06:38:45.611Z,19.17
2017-09-06T06:41:13.262Z,21.50
2017-09-06T06:43:40.859Z,20.83
2017-09-06T06:46:08.501Z,24.13
2017-09-06T06:48:36.142Z,21.00
2017-09-06T06:51:03.939Z,24.67
2017-09-06T06:53:31.545Z,32.67
2017-09-06T06:55:59.142Z,23.90
2017-09-06T06:58:26.755Z,26.60
2017-09-06T07:00:54.704Z,26.20
2017-09-06T07:03:22.430Z,27.63
2017-09-06T07:05:50.051Z,31.30
2017-09-06T07:08:17.666Z,33.97
2017-09-06T07:10:45.305Z,28.37
2017-09-06T07:13:12.938Z,30.93
2017-09-06T07:15:40.546Z,26.00
2017-09-06T07:18:08.150Z,24.90
2017-09-06T07:20:35.779Z,26.20
2017-09-06T07:23:03.405Z,21.73
2017-09-06T07:25:31.055Z,20.03
2017-09-06T07:27:58.684Z,17.23
2017-09-06T07:30:26.344Z,16.33
2017-09-06T07:32:53.969Z,13.90
2017-09-06T07:35:21.590Z,12.37
2017-09-06T07:37:49.230Z,11.70
2017-09-06T07:40:16.847Z,15.20
2017-09-06T07:42:44.469Z,13.30
2017-09-06T07:45:12.104Z,12.53
2017-09-06T07:47:39.742Z,11.87
2017-09-06T07:50:07.391Z,9.60
2017-09-06T07:52:35.036Z,10.07
2017-09-06T07:55:02.660Z,6.27
2017-09-06T07:57:30.298Z,4.70
2017-09-06T07:59:57.920Z,4.20
2017-09-06T08:02:25.536Z,3.50
2017-09-06T08:04:53.204Z,6.53
2017-09-06T08:07:20.825Z,6.57
2017-09-06T08:09:48.473Z,5.77
2017-09-06T08:12:16.094Z,6.47
2017-09-06T08:14:43.724Z,3.77
2017-09-06T08:17:11.615Z,3.40
2017-09-06T08:19:39.255Z,3.60
2017-09-06T08:22:06.900Z,2.80
2017-09-06T08:24:34.548Z,4.30
2017-09-06T08:27:02.235Z,0.80
2017-09-06T08:29:29.921Z,1.00
2017-09-06T08:31:57.547Z,2.30
2017-09-06T08:34:25.168Z,1.13
2017-09-06T08:36:52.789Z,2.30
2017-09-06T08:39:20.424Z,5.60
2017-09-06T08:41:48.064Z,3.10
2017-09-06T08:44:15.683Z,6.30
2017-09-06T08:46:43.337Z,4.30
2017-09-06T08:49:10.970Z,4.47
2017-09-06T08:51:38.594Z,6.00
2017-09-06T08:54:06.220Z,6.53
2017-09-06T08:56:33.856Z,8.13
2017-09-06T08:59:01.540Z,6.43
2017-09-06T09:01:29.157Z,9.97
2017-09-06T09:03:56.781Z,8.70
2017-09-06T09:06:24.480Z,8.83
2017-09-06T09:08:52.248Z,15.30
2017-09-06T09:11:19.875Z,17.37
2017-09-06T09:13:47.499Z,11.23
2017-09-06T09:16:15.116Z,11.60
2017-09-06T09:18:42.752Z,15.67
2017-09-06T09:21:10.382Z,10.37
2017-09-06T09:23:38.005Z,14.67
2017-09-06T09:26:05.657Z,14.10
2017-09-06T09:28:33.302Z,11.70
2017-09-06T09:31:00.929Z,8.67
2017-09-06T09:33:28.588Z,14.87
2017-09-06T09:35:56.501Z,14.00
2017-09-06T09:38:24.143Z,18.60
2017-09-06T09:40:51.798Z,19.50
2017-09-06T09:43:19.449Z,25.03
2017-09-06T09:45:47.067Z,20.27
2017-09-06T09:48:15.187Z,14.83
2017-09-06T09:50:42.838Z,20.73
2017-09-06T09:53:10.452Z,13.73
2017-09-06T09:55:38.100Z,15.70
2017-09-06T09:58:05.729Z,13.83
2017-09-06T10:00:34.109Z,10.53
2017-09-06T10:03:01.767Z,23.17
2017-09-06T10:05:29.420Z,9.60
2017-09-06T10:07:57.043Z,7.10
2017-09-06T10:10:24.661Z,11.23
2017-09-06T10:12:52.525Z,12.37
2017-09-06T10:15:20.162Z,8.03
2017-09-06T10:17:47.793Z,6.03
2017-09-06T10:20:15.500Z,4.77
2017-09-06T10:22:43.169Z,10.87
2017-09-06T10:25:10.810Z,6.83
2017-09-06T10:27:38.457Z,10.30
2017-09-06T10:30:06.116Z,5.50
2017-09-06T10:32:33.741Z,6.47
2017-09-06T10:35:01.368Z,7.27
2017-09-06T10:37:29.056Z,5.80
2017-09-06T10:39:56.717Z,6.37
2017-09-06T10:42:24.350Z,11.70
2017-09-06T10:44:51.993Z,8.70
2017-09-06T10:47:19.634Z,15.40
2017-09-06T10:49:47.255Z,10.60
2017-09-06T10:52:15.741Z,9.90
2017-09-06T10:54:43.415Z,6.30
2017-09-06T10:57:11.019Z,8.23
2017-09-06T10:59:38.636Z,11.30
2017-09-06T11:02:06.258Z,5.57
2017-09-06T11:07:24.332Z,6.43
2017-09-06T11:09:51.928Z,10.50
2017-09-06T11:12:19.548Z,6.40
2017-09-06T11:14:47.142Z,9.33
2017-09-06T11:17:15.094Z,7.43
2017-09-06T11:19:42.720Z,11.27
2017-09-06T11:22:10.312Z,11.10
2017-09-06T11:24:37.961Z,6.17
2017-09-06T11:27:05.612Z,9.87
2017-09-06T11:29:33.214Z,9.47
2017-09-06T11:32:00.867Z,7.30
2017-09-06T11:34:28.478Z,13.63
2017-09-06T11:36:56.078Z,8.47
2017-09-06T11:39:23.670Z,7.53
2017-09-06T11:41:51.317Z,12.40
2017-09-06T11:44:18.921Z,6.07
2017-09-06T11:46:46.523Z,5.20
2017-09-06T11:49:14.109Z,8.80
2017-09-06T11:51:41.730Z,7.53
2017-09-06T11:54:09.330Z,8.60
2017-09-06T11:56:36.923Z,10.40
2017-09-06T11:59:04.545Z,11.03
2017-09-06T12:01:32.184Z,4.80
2017-09-06T12:03:59.807Z,5.43
2017-09-06T12:06:27.448Z,8.13
2017-09-06T12:08:55.059Z,9.30
2017-09-06T12:11:22.656Z,8.67
2017-09-06T12:13:50.267Z,5.80
2017-09-06T12:16:17.881Z,9.50
2017-09-06T12:18:45.487Z,8.43
2017-09-06T12:21:13.084Z,9.03
2017-09-06T12:23:40.680Z,5.53
2017-09-06T12:26:08.281Z,8.77
2017-09-06T12:28:35.889Z,9.43
2017-09-06T12:31:03.485Z,7.60
2017-09-06T12:33:31.495Z,10.50
2017-09-06T12:35:59.120Z,12.37
2017-09-06T12:38:26.736Z,10.03
2017-09-06T12:40:54.342Z,4.97
2017-09-06T12:43:21.936Z,5.53
2017-09-06T12:45:49.563Z,9.80
2017-09-06T12:48:17.167Z,7.00
2017-09-06T12:50:44.784Z,7.73
2017-09-06T12:53:12.380Z,6.07
2017-09-06T12:55:39.993Z,6.40
2017-09-06T12:58:07.598Z,7.67
2017-09-06T13:00:35.217Z,7.90
2017-09-06T13:03:02.828Z,8.60
2017-09-06T13:05:30.425Z,8.40
2017-09-06T13:07:58.066Z,11.87
2017-09-06T13:10:25.711Z,8.53
2017-09-06T13:12:53.313Z,5.73
2017-09-06T13:15:21.404Z,6.53
2017-09-06T13:17:49.071Z,7.90
2017-09-06T13:20:16.710Z,9.77
2017-09-06T13:22:44.489Z,5.80
2017-09-06T13:25:12.176Z,8.97
2017-09-06T13:27:40.037Z,10.63
2017-09-06T13:30:07.660Z,7.80
2017-09-06T13:32:35.374Z,10.97
2017-09-06T13:35:03.184Z,7.23
2017-09-06T13:37:30.860Z,6.17
2017-09-06T13:39:58.741Z,13.33
2017-09-06T13:42:26.361Z,9.10
2017-09-06T13:44:53.962Z,11.40
2017-09-06T13:47:21.579Z,8.60
2017-09-06T13:49:49.177Z,8.03
2017-09-06T13:52:16.765Z,9.00
2017-09-06T13:54:44.377Z,10.27
2017-09-06T13:57:11.966Z,4.60
2017-09-06T13:59:39.566Z,5.73
2017-09-06T14:02:08.107Z,8.47
2017-09-06T14:04:35.770Z,10.43
2017-09-06T14:07:03.380Z,7.73
2017-09-06T14:09:31.002Z,6.93
2017-09-06T14:11:58.614Z,12.43
2017-09-06T14:14:26.212Z,10.50
2017-09-06T14:16:53.814Z,10.43
2017-09-06T14:19:21.476Z,12.40
2017-09-06T14:21:49.851Z,14.20
2017-09-06T14:24:17.464Z,11.13
2017-09-06T14:26:45.776Z,11.63
2017-09-06T14:29:13.355Z,11.43
2017-09-06T14:31:41.604Z,15.20
2017-09-06T14:34:09.266Z,20.87
2017-09-06T14:36:36.888Z,20.83
2017-09-06T14:39:05.818Z,9.83
2017-09-06T14:41:33.425Z,12.10
2017-09-06T14:44:01.027Z,14.37
2017-09-06T14:46:28.640Z,11.20
2017-09-06T14:48:57.158Z,11.30
2017-09-06T14:51:24.781Z,8.70
2017-09-06T14:53:53.469Z,8.93
2017-09-06T14:56:21.314Z,7.20
2017-09-06T14:58:48.898Z,8.20
2017-09-06T15:01:17.227Z,11.10
2017-09-06T15:03:44.832Z,8.60
2017-09-06T15:06:12.673Z,7.50
2017-09-06T15:08:40.305Z,8.97
2017-09-06T15:11:07.986Z,10.00
2017-09-06T15:13:35.840Z,7.70
2017-09-06T15:16:03.434Z,14.80
2017-09-06T15:18:31.084Z,12.43
2017-09-06T15:20:58.706Z,7.57
2017-09-06T15:23:26.303Z,10.77
2017-09-06T15:25:53.913Z,14.73
2017-09-06T15:28:21.517Z,6.60
2017-09-06T15:30:49.110Z,9.07
2017-09-06T15:33:16.730Z,6.87
2017-09-06T15:35:44.344Z,9.57
2017-09-06T15:38:11.984Z,7.27
2017-09-06T15:40:39.630Z,13.10
2017-09-06T15:43:14.075Z,8.03
2017-09-06T15:45:41.689Z,10.80
2017-09-06T15:48:09.299Z,7.60
2017-09-06T15:50:36.912Z,6.17
2017-09-06T15:53:04.525Z,8.93
2017-09-06T15:55:32.182Z,7.50
2017-09-06T15:57:59.773Z,8.37
2017-09-06T16:00:27.449Z,7.87
2017-09-06T16:02:55.061Z,9.20
2017-09-06T16:05:22.678Z,9.03
2017-09-06T16:07:50.304Z,7.83
2017-09-06T16:10:18.208Z,9.10
2017-09-06T16:12:53.021Z,12.13
2017-09-06T16:15:21.384Z,11.57
2017-09-06T16:17:49.065Z,10.13
2017-09-06T16:20:16.679Z,10.47
2017-09-06T16:22:44.264Z,12.47
2017-09-06T16:25:11.872Z,11.20
2017-09-06T16:27:39.506Z,11.57
2017-09-06T16:30:07.139Z,11.70
2017-09-06T16:32:36.000Z,8.93
2017-09-06T16:35:03.611Z,8.60
2017-09-06T16:37:31.259Z,11.60
2017-09-06T16:39:59.801Z,14.83
2017-09-06T16:42:28.752Z,11.60
2017-09-06T16:44:56.354Z,8.07
2017-09-06T16:47:24.038Z,13.80
2017-09-06T16:49:51.695Z,10.57
2017-09-06T16:52:19.326Z,17.07
2017-09-06T16:54:46.955Z,8.10
2017-09-06T16:57:14.578Z,11.10
2017-09-06T16:59:42.190Z,13.03
2017-09-06T17:02:09.823Z,10.70
2017-09-06T17:04:37.922Z,16.13
2017-09-06T17:07:06.126Z,9.73
2017-09-06T17:09:42.444Z,12.87
2017-09-06T17:12:10.069Z,15.43
2017-09-06T17:14:38.567Z,8.63
2017-09-06T17:17:06.215Z,10.60
2017-09-06T17:19:33.854Z,14.73
2017-09-06T17:22:01.462Z,21.00
2017-09-06T17:24:29.116Z,15.43
2017-09-06T17:26:56.732Z,16.43
2017-09-06T17:29:24.345Z,9.40
2017-09-06T17:31:51.992Z,11.13
2017-09-06T17:34:19.594Z,11.63
2017-09-06T17:36:47.197Z,10.00
2017-09-06T17:39:14.802Z,15.13
2017-09-06T17:41:44.196Z,11.90
2017-09-06T17:44:11.838Z,10.40
2017-09-06T17:46:39.798Z,13.77
2017-09-06T17:49:07.427Z,10.90
2017-09-06T17:51:35.094Z,14.90
2017-09-06T17:54:03.502Z,13.10
2017-09-06T17:56:31.138Z,13.83
2017-09-06T17:58:58.965Z,15.50
2017-09-06T18:01:26.614Z,13.80
2017-09-06T18:03:54.498Z,20.17
2017-09-06T18:06:22.129Z,10.23
2017-09-06T18:08:49.734Z,11.13
2017-09-06T18:11:17.380Z,11.23
2017-09-06T18:13:45.864Z,15.07
2017-09-06T18:16:13.466Z,15.87
2017-09-06T18:18:41.129Z,14.23
2017-09-06T18:21:08.722Z,15.30
2017-09-06T18:23:36.341Z,13.30
2017-09-06T18:26:04.826Z,14.70
2017-09-06T18:28:32.452Z,11.23
2017-09-06T18:31:00.082Z,14.63
2017-09-06T18:33:27.678Z,18.83
2017-09-06T18:35:55.353Z,18.73
2017-09-06T18:38:22.970Z,21.77
2017-09-06T18:40:50.588Z,16.27
2017-09-06T18:43:18.222Z,14.23
2017-09-06T18:45:45.841Z,13.43
2017-09-06T18:48:13.492Z,13.57
2017-09-06T18:50:41.601Z,17.27
2017-09-06T18:53:09.258Z,19.83
2017-09-06T18:55:36.865Z,14.63
2017-09-06T18:58:04.471Z,13.80
2017-09-06T19:00:32.482Z,17.00
2017-09-06T19:03:00.079Z,13.63
2017-09-06T19:08:26.932Z,10.20
2017-09-06T19:10:54.535Z,19.57
2017-09-06T19:13:22.171Z,17.07
2017-09-06T19:15:49.801Z,12.13
2017-09-06T19:18:17.396Z,16.63
2017-09-06T19:20:45.874Z,22.27
2017-09-06T19:23:13.528Z,21.50
2017-09-06T19:25:41.188Z,18.90
2017-09-06T19:28:08.837Z,30.10
2017-09-06T19:30:36.448Z,15.10
2017-09-06T19:33:04.068Z,27.63
2017-09-06T19:35:31.684Z,15.17
2017-09-06T19:38:00.011Z,22.17
2017-09-06T19:40:27.629Z,19.50
2017-09-06T19:42:55.228Z,17.80
2017-09-06T19:45:22.897Z,19.07
2017-09-06T19:47:50.537Z,20.03
2017-09-06T19:50:18.242Z,28.33
2017-09-06T19:52:45.852Z,19.67
2017-09-06T19:55:13.444Z,20.03
2017-09-06T19:57:41.055Z,16.50
2017-09-06T20:00:08.676Z,18.53
2017-09-06T20:02:36.416Z,23.03
2017-09-06T20:05:04.028Z,17.53
2017-09-06T20:07:31.895Z,16.00
2017-09-06T20:09:59.524Z,17.33
2017-09-06T20:12:27.141Z,17.57
2017-09-06T20:14:55.160Z,16.43
2017-09-06T20:17:22.820Z,24.27
2017-09-06T20:19:50.431Z,14.07
2017-09-06T20:22:18.075Z,19.93
2017-09-06T20:24:45.668Z,16.63
2017-09-06T20:27:13.279Z,12.20
2017-09-06T20:29:40.894Z,11.70
2017-09-06T20:32:08.498Z,11.27
2017-09-06T20:34:36.141Z,12.67
2017-09-06T20:37:04.549Z,12.53
2017-09-06T20:39:32.248Z,9.97
2017-09-06T20:41:59.840Z,18.07
2017-09-06T20:44:27.450Z,15.03
2017-09-06T20:46:55.397Z,20.40
2017-09-06T20:49:23.003Z,12.13
2017-09-06T20:51:50.626Z,16.33
2017-09-06T20:54:18.231Z,19.93
2017-09-06T20:56:45.862Z,12.80
2017-09-06T20:59:13.492Z,20.00
2017-09-06T21:01:41.125Z,10.73
2017-09-06T21:04:08.827Z,12.20
2017-09-06T21:06:36.441Z,12.10
2017-09-06T21:09:04.307Z,12.37
2017-09-06T21:11:31.947Z,19.13
2017-09-06T21:13:59.563Z,13.20
2017-09-06T21:16:27.199Z,11.30
2017-09-06T21:18:54.825Z,17.40
2017-09-06T21:21:22.435Z,13.63
2017-09-06T21:23:50.025Z,13.20
2017-09-06T21:26:17.627Z,18.37
2017-09-06T21:28:45.285Z,12.40
2017-09-06T21:31:12.909Z,17.27
2017-09-06T21:33:40.508Z,14.10
2017-09-06T21:36:08.106Z,15.77
2017-09-06T21:38:35.735Z,16.20
2017-09-06T21:41:03.355Z,15.30
2017-09-06T21:43:30.981Z,15.23
2017-09-06T21:45:58.637Z,15.07
2017-09-06T21:48:26.317Z,15.00
2017-09-06T21:50:53.922Z,13.63
2017-09-06T21:53:23.548Z,17.23
2017-09-06T21:55:51.155Z,19.27
2017-09-06T21:58:18.819Z,19.83
2017-09-06T22:00:47.334Z,14.90
2017-09-06T22:03:15.772Z,19.43
2017-09-06T22:05:43.395Z,18.27
2017-09-06T22:08:11.884Z,14.90
2017-09-06T22:10:39.539Z,21.00
2017-09-06T22:13:07.192Z,12.27
2017-09-06T22:15:34.838Z,19.23
2017-09-06T22:18:02.485Z,16.27
2017-09-06T22:20:30.535Z,15.17
2017-09-06T22:22:58.162Z,16.90
2017-09-06T22:25:25.789Z,14.77
2017-09-06T22:27:53.467Z,12.70
2017-09-06T22:30:21.066Z,17.67
2017-09-06T22:33:19.150Z,16.07
2017-09-06T22:35:46.744Z,13.60
2017-09-06T22:38:14.353Z,16.50
2017-09-06T22:40:43.532Z,20.27
2017-09-06T22:43:11.152Z,17.60
2017-09-06T22:45:38.773Z,12.30
2017-09-06T22:48:06.383Z,13.10
2017-09-06T22:53:16.720Z,13.50
2017-09-06T22:55:44.323Z,10.93
2017-09-06T22:58:11.954Z,11.90
2017-09-06T23:00:39.613Z,16.93
2017-09-06T23:03:07.221Z,13.60
2017-09-06T23:05:34.834Z,17.30
2017-09-06T23:08:02.420Z,19.00
2017-09-06T23:10:30.075Z,15.40
2017-09-06T23:12:57.680Z,20.10
2017-09-06T23:15:25.989Z,17.17
2017-09-06T23:17:53.643Z,12.80
2017-09-06T23:20:21.252Z,15.23
2017-09-06T23:22:48.931Z,14.87
2017-09-06T23:25:17.341Z,18.40
2017-09-06T23:27:44.960Z,17.37
2017-09-06T23:30:12.571Z,12.37
2017-09-06T23:32:40.196Z,17.67
2017-09-06T23:35:07.911Z,21.97
2017-09-06T23:37:35.518Z,15.17
2017-09-06T23:40:03.162Z,14.60
2017-09-06T23:42:30.793Z,15.33
2017-09-06T23:44:58.433Z,16.90
2017-09-06T23:47:26.094Z,21.57
2017-09-06T23:49:53.715Z,16.87
2017-09-06T23:52:21.360Z,10.93
2017-09-06T23:54:49.038Z,17.97
2017-09-06T23:57:18.247Z,19.83
2017-09-06T23:59:45.877Z,18.40
